Date,TemperatureHighF,TemperatureAvgF,TemperatureLowF,DewpointHighF,DewpointAvgF,DewpointLowF,HumidityHigh,HumidityAvg,HumidityLow,PressureMaxIn,PressureMinIn,WindSpeedMaxMPH,WindSpeedAvgMPH,GustSpeedMaxMPH,PrecipitationSumIn
2013-5-1,54,44,35,37,26,7,94,55,16,30.32,29.46,20,8,36,0.14
2013-5-2,56,40,23,21,15,8,75,39,15,30.57,30.32,12,3,16,0.00
2013-5-3,64,48,27,22,13,-3,60,30,7,30.41,29.89,11,3,15,0.00
2013-5-4,70,55,34,28,17,10,48,25,10,29.90,29.67,16,3,23,0.00
2013-5-5,70,58,45,33,26,19,49,30,18,29.77,29.68,15,4,21,0.00
2013-5-6,64,53,40,45,37,28,94,58,31,29.88,29.68,14,3,21,0.03
2013-5-7,54,46,37,45,40,36,95,82,59,29.94,29.87,10,2,16,0.11
2013-5-8,53,45,38,42,38,36,96,80,57,30.02,29.88,12,3,16,0.08
2013-5-9,62,49,40,44,40,34,96,73,37,30.04,29.93,13,2,17,0.11
2013-5-10,65,51,36,40,36,32,85,58,30,30.15,30.00,16,3,19,0.00
2013-5-11,71,56,37,38,31,19,77,44,14,30.25,30.07,12,3,30,0.00
2013-5-12,75,62,47,40,34,27,63,37,19,30.12,29.92,12,3,15,0.00
2013-5-13,80,64,45,44,36,26,65,37,14,30.04,29.83,14,4,18,0.00
2013-5-14,82,66,48,45,37,28,59,37,14,29.85,29.63,12,3,20,0.00
2013-5-15,81,63,51,47,40,24,65,45,21,29.73,29.55,14,2,23,0.02
2013-5-16,80,64,46,40,31,24,72,32,14,29.71,29.55,13,3,21,0.00
2013-5-17,78,67,55,31,22,15,33,19,10,29.66,29.50,19,6,26,0.00
2013-5-18,70,58,45,39,32,22,60,38,21,29.73,29.57,20,4,34,0.00
2013-5-19,60,50,40,38,34,28,72,55,33,29.83,29.74,15,3,24,0.00
2013-5-20,61,49,35,39,35,30,83,60,36,29.97,29.83,24,4,27,0.00
2013-5-21,69,56,38,40,35,28,80,49,27,29.98,29.72,10,2,15,0.00
2013-5-22,79,65,44,37,29,19,57,29,11,29.74,29.50,14,4,23,0.00
2013-5-23,83,71,55,38,22,10,39,17,7,29.59,29.43,23,6,30,0.00
2013-5-24,78,68,53,35,23,14,36,19,10,29.70,29.56,24,4,25,0.00
2013-5-25,81,66,51,35,24,15,34,21,9,29.77,29.61,13,5,22,0.00
2013-5-26,79,68,54,36,22,13,33,18,10,29.72,29.56,15,4,22,0.00
2013-5-27,76,66,54,34,22,12,32,19,9,29.67,29.48,15,4,18,0.00
2013-5-28,76,64,52,40,28,17,60,27,15,29.54,29.33,20,5,25,0.00
2013-5-29,66,54,41,45,36,21,94,56,18,29.66,29.47,16,4,26,0.01
2013-5-30,70,59,46,36,28,22,66,33,18,29.75,29.62,28,4,30,0.00
2013-5-31,68,58,46,33,22,10,54,27,12,29.92,29.74,17,5,26,0.00